createdAt,value
2018-01-04T00:01:16.784Z,23.83
2018-01-04T00:03:44.496Z,22.53
2018-01-04T00:06:12.448Z,22.80
2018-01-04T00:08:40.007Z,21.83
2018-01-04T00:11:07.574Z,20.93
2018-01-04T00:13:35.138Z,20.43
2018-01-04T00:16:02.710Z,22.37
2018-01-04T00:18:30.640Z,24.07
2018-01-04T00:20:58.457Z,26.83
2018-01-04T00:23:26.018Z,26.53
2018-01-04T00:25:53.590Z,24.50
2018-01-04T00:28:21.150Z,24.87
2018-01-04T00:30:48.763Z,24.90
2018-01-04T00:33:16.547Z,23.93
2018-01-04T00:35:44.231Z,23.43
2018-01-04T00:38:11.794Z,25.00
2018-01-04T00:40:39.601Z,23.93
2018-01-04T00:43:07.429Z,25.03
2018-01-04T00:45:34.998Z,24.13
2018-01-04T00:48:02.557Z,24.70
2018-01-04T00:50:30.374Z,22.40
2018-01-04T00:52:58.093Z,24.23
2018-01-04T00:55:25.706Z,25.10
2018-01-04T00:57:53.528Z,23.43
2018-01-04T01:00:21.138Z,23.93
2018-01-04T01:02:48.690Z,24.20
2018-01-04T01:05:16.244Z,23.60
2018-01-04T01:07:43.858Z,22.57
2018-01-04T01:10:11.414Z,24.57
2018-01-04T01:12:39.135Z,24.50
2018-01-04T01:15:06.746Z,23.63
2018-01-04T01:17:34.369Z,23.43
2018-01-04T01:20:01.986Z,24.73
2018-01-04T01:22:29.547Z,23.10
2018-01-04T01:24:57.325Z,24.30
2018-01-04T01:27:24.922Z,24.40
2018-01-04T01:29:52.482Z,26.53
2018-01-04T01:32:20.089Z,24.80
2018-01-04T01:34:47.897Z,26.57
2018-01-04T01:37:15.459Z,23.53
2018-01-04T01:39:43.233Z,24.37
2018-01-04T01:42:10.806Z,24.47
2018-01-04T01:44:38.419Z,25.53
2018-01-04T01:47:05.978Z,26.40
2018-01-04T01:49:33.665Z,27.23
2018-01-04T01:52:01.423Z,21.53
2018-01-04T01:54:28.978Z,20.50
2018-01-04T01:56:56.597Z,21.77
2018-01-04T01:59:24.184Z,21.13
2018-01-04T02:01:51.749Z,23.27
2018-01-04T02:04:19.512Z,22.50
2018-01-04T02:06:47.143Z,23.93
2018-01-04T02:09:14.758Z,27.20
2018-01-04T02:11:42.322Z,24.43
2018-01-04T02:14:10.051Z,26.60
2018-01-04T02:16:37.622Z,25.17
2018-01-04T02:19:17.010Z,23.57
2018-01-04T02:21:56.621Z,21.93
2018-01-04T02:24:36.181Z,21.70
2018-01-04T02:27:15.558Z,21.27
2018-01-04T02:29:54.915Z,20.90
2018-01-04T02:32:34.300Z,21.30
2018-01-04T02:35:11.669Z,29.97
2018-01-04T02:37:51.028Z,25.70
2018-01-04T02:40:30.456Z,21.23
2018-01-04T02:43:09.907Z,20.93
2018-01-04T02:45:58.902Z,18.73
2018-01-04T02:48:26.479Z,20.10
2018-01-04T02:50:54.193Z,25.50
2018-01-04T02:53:22.039Z,24.93
2018-01-04T02:55:49.612Z,23.47
2018-01-04T02:58:17.174Z,22.07
2018-01-04T03:00:44.991Z,22.40
2018-01-04T03:03:12.554Z,24.80
2018-01-04T03:05:40.325Z,23.00
2018-01-04T03:08:07.878Z,20.83
2018-01-04T03:10:35.438Z,23.37
2018-01-04T03:13:03.279Z,24.37
2018-01-04T03:15:30.845Z,22.60
2018-01-04T03:17:58.462Z,21.23
2018-01-04T03:20:26.014Z,19.77
2018-01-04T03:22:59.222Z,21.10
2018-01-04T03:25:32.610Z,20.33
2018-01-04T03:28:05.538Z,20.77
2018-01-04T03:30:38.799Z,21.07
2018-01-04T03:33:11.794Z,22.90
2018-01-04T03:35:44.947Z,23.17
2018-01-04T03:38:18.064Z,21.30
2018-01-04T03:40:51.130Z,21.37
2018-01-04T03:43:24.278Z,20.60
2018-01-04T03:45:57.606Z,21.63
2018-01-04T03:48:27.881Z,22.00
2018-01-04T03:51:01.042Z,22.40
2018-01-04T03:53:34.019Z,22.23
2018-01-04T03:56:07.358Z,22.37
2018-01-04T03:58:40.401Z,26.00
2018-01-04T04:04:19.643Z,33.93
2018-01-04T04:06:52.768Z,33.93
2018-01-04T04:09:20.406Z,37.00
2018-01-04T04:11:48.125Z,29.67
2018-01-04T04:14:15.681Z,25.27
2018-01-04T04:16:43.276Z,20.27
2018-01-04T04:19:10.837Z,22.57
2018-01-04T04:21:38.462Z,22.20
2018-01-04T04:24:06.024Z,21.23
2018-01-04T04:26:33.752Z,21.60
2018-01-04T04:29:01.327Z,21.43
2018-01-04T04:31:29.002Z,25.57
2018-01-04T04:33:56.878Z,26.40
2018-01-04T04:36:24.439Z,29.67
2018-01-04T04:38:51.984Z,28.23
2018-01-04T04:41:19.761Z,30.20
2018-01-04T04:43:47.326Z,26.53
2018-01-04T04:46:14.949Z,26.07
2018-01-04T04:48:42.714Z,27.60
2018-01-04T04:51:10.274Z,33.60
2018-01-04T04:53:38.051Z,35.27
2018-01-04T04:56:05.610Z,36.83
2018-01-04T04:58:33.225Z,35.50
2018-01-04T05:01:00.965Z,31.17
2018-01-04T05:03:28.593Z,27.37
2018-01-04T05:05:56.142Z,24.80
2018-01-04T05:08:23.859Z,23.80
2018-01-04T05:10:51.492Z,27.53
2018-01-04T05:13:19.054Z,27.77
2018-01-04T05:15:46.814Z,27.70
2018-01-04T05:18:14.399Z,27.57
2018-01-04T05:20:41.953Z,27.60
2018-01-04T05:23:09.618Z,28.07
2018-01-04T05:25:37.171Z,26.33
2018-01-04T05:28:04.734Z,27.27
2018-01-04T05:30:32.306Z,27.57
2018-01-04T05:32:59.906Z,26.27
2018-01-04T05:35:27.758Z,27.17
2018-01-04T05:37:55.313Z,26.23
2018-01-04T05:40:23.057Z,26.50
2018-01-04T05:42:50.662Z,25.57
2018-01-04T05:45:18.227Z,25.87
2018-01-04T05:47:45.844Z,27.90
2018-01-04T05:50:13.417Z,27.80
2018-01-04T05:52:40.966Z,31.33
2018-01-04T05:55:08.590Z,30.87
2018-01-04T05:57:36.418Z,31.83
2018-01-04T06:00:04.336Z,32.73
2018-01-04T06:02:31.894Z,42.30
2018-01-04T06:04:59.675Z,66.40
2018-01-04T06:07:27.250Z,48.07
2018-01-04T06:09:55.008Z,34.63
2018-01-04T06:12:22.826Z,38.07
2018-01-04T06:14:50.437Z,44.93
2018-01-04T06:17:18.162Z,45.73
2018-01-04T06:19:45.771Z,40.20
2018-01-04T06:22:13.347Z,40.93
2018-01-04T06:24:41.200Z,50.50
2018-01-04T06:27:08.770Z,29.80
2018-01-04T06:29:36.530Z,29.07
2018-01-04T06:32:04.110Z,32.33
2018-01-04T06:34:31.889Z,38.90
2018-01-04T06:36:59.528Z,39.60
2018-01-04T06:39:27.294Z,33.87
2018-01-04T06:41:55.013Z,53.33
2018-01-04T06:44:22.726Z,45.77
2018-01-04T06:46:50.299Z,42.17
2018-01-04T06:49:17.922Z,50.00
2018-01-04T06:51:45.486Z,70.00
2018-01-04T06:54:13.114Z,40.07
2018-01-04T06:56:40.833Z,37.30
2018-01-04T06:59:08.420Z,63.47
2018-01-04T07:01:36.289Z,76.33
2018-01-04T07:04:03.862Z,92.57
2018-01-04T07:06:31.636Z,162.37
2018-01-04T07:08:59.232Z,160.20
2018-01-04T07:11:26.860Z,106.87
2018-01-04T07:13:54.490Z,144.70
2018-01-04T07:16:22.078Z,134.00
2018-01-04T07:18:49.814Z,100.17
2018-01-04T07:21:17.433Z,113.03
2018-01-04T07:23:45.047Z,127.40
2018-01-04T07:26:12.663Z,121.93
2018-01-04T07:28:40.266Z,101.40
2018-01-04T07:31:07.838Z,66.53
2018-01-04T07:33:35.513Z,57.63
2018-01-04T07:36:03.131Z,55.43
2018-01-04T07:38:30.810Z,50.13
2018-01-04T07:40:58.375Z,35.70
2018-01-04T07:43:25.934Z,35.23
2018-01-04T07:45:53.502Z,35.77
2018-01-04T07:48:21.087Z,43.97
2018-01-04T07:50:48.714Z,416.63
2018-01-04T07:53:16.282Z,123.60
2018-01-04T07:55:44.082Z,89.27
2018-01-04T07:58:11.901Z,74.83
2018-01-04T08:00:39.719Z,58.13
2018-01-04T08:03:07.540Z,41.13
2018-01-04T08:05:35.240Z,33.37
2018-01-04T08:08:02.954Z,36.03
2018-01-04T08:10:30.793Z,46.63
2018-01-04T08:12:58.352Z,45.13
2018-01-04T08:15:25.986Z,56.80
2018-01-04T08:17:53.718Z,57.57
2018-01-04T08:20:21.356Z,55.97
2018-01-04T08:22:49.184Z,54.57
2018-01-04T08:25:17.002Z,64.17
2018-01-04T08:27:44.618Z,89.53
2018-01-04T08:30:12.438Z,100.03
2018-01-04T08:32:40.257Z,90.63
2018-01-04T08:35:08.076Z,106.10
2018-01-04T08:37:35.642Z,224.90
2018-01-04T08:40:03.516Z,296.43
2018-01-04T08:42:31.330Z,143.57
2018-01-04T08:44:59.150Z,86.63
2018-01-04T08:47:27.403Z,80.57
2018-01-04T08:49:55.188Z,68.40
2018-01-04T08:52:23.006Z,60.17
2018-01-04T08:54:50.597Z,59.67
2018-01-04T08:57:18.159Z,59.27
2018-01-04T08:59:45.730Z,51.07
2018-01-04T09:02:13.479Z,51.43
2018-01-04T09:04:41.297Z,53.80
2018-01-04T09:07:09.124Z,56.70
2018-01-04T09:09:36.687Z,57.00
2018-01-04T09:12:04.451Z,53.60
2018-01-04T09:14:32.042Z,50.30
2018-01-04T09:16:59.661Z,42.87
2018-01-04T09:19:27.242Z,31.93
2018-01-04T09:21:54.914Z,38.47
2018-01-04T09:24:22.640Z,33.83
2018-01-04T09:26:50.191Z,35.37
2018-01-04T09:29:17.977Z,30.57
2018-01-04T09:31:45.684Z,35.33
2018-01-04T09:34:13.406Z,31.43
2018-01-04T09:36:41.233Z,40.43
2018-01-04T09:39:08.951Z,34.37
2018-01-04T09:41:36.746Z,37.73
2018-01-04T09:44:04.588Z,36.10
2018-01-04T09:46:32.285Z,30.17
2018-01-04T09:49:00.027Z,32.37
2018-01-04T09:51:27.590Z,34.13
2018-01-04T09:53:55.267Z,43.27
2018-01-04T09:56:22.843Z,35.37
2018-01-04T09:58:50.409Z,72.13
2018-01-04T10:01:18.214Z,38.10
2018-01-04T10:03:45.796Z,37.97
2018-01-04T10:06:13.446Z,49.27
2018-01-04T10:08:41.055Z,48.83
2018-01-04T10:11:08.700Z,49.33
2018-01-04T10:13:36.383Z,46.37
2018-01-04T10:16:04.097Z,52.70
2018-01-04T10:18:31.784Z,35.20
2018-01-04T10:20:59.535Z,35.43
2018-01-04T10:23:27.097Z,38.40
2018-01-04T10:25:54.680Z,36.77
2018-01-04T10:28:22.279Z,25.33
2018-01-04T10:30:50.042Z,41.67
2018-01-04T10:33:17.582Z,33.07
2018-01-04T10:35:45.142Z,30.90
2018-01-04T10:38:12.884Z,34.63
2018-01-04T10:40:40.442Z,22.97
2018-01-04T10:43:08.140Z,20.10
2018-01-04T10:45:35.720Z,21.27
2018-01-04T10:48:03.556Z,17.23
2018-01-04T10:50:31.134Z,19.97
2018-01-04T10:52:58.700Z,24.13
2018-01-04T10:55:26.538Z,19.20
2018-01-04T10:57:54.330Z,19.20
2018-01-04T11:00:22.148Z,15.57
2018-01-04T11:02:49.718Z,17.47
2018-01-04T11:05:17.485Z,17.07
2018-01-04T11:07:45.302Z,19.93
2018-01-04T11:10:13.122Z,12.83
2018-01-04T11:12:40.839Z,14.27
2018-01-04T11:15:08.657Z,13.97
2018-01-04T11:17:36.379Z,13.37
2018-01-04T11:20:04.006Z,15.13
2018-01-04T11:22:31.862Z,16.33
2018-01-04T11:24:59.631Z,28.30
2018-01-04T11:27:27.449Z,21.47
2018-01-04T11:29:55.184Z,19.47
2018-01-04T11:32:22.977Z,18.97
2018-01-04T11:34:50.555Z,14.17
2018-01-04T11:37:18.118Z,16.77
2018-01-04T11:39:45.691Z,13.03
2018-01-04T11:42:13.445Z,18.70
2018-01-04T11:44:41.121Z,18.53
2018-01-04T11:47:08.793Z,20.73
2018-01-04T11:49:36.381Z,13.37
2018-01-04T11:52:05.024Z,15.47
2018-01-04T11:54:32.610Z,13.27
2018-01-04T11:57:00.194Z,13.47
2018-01-04T11:59:27.810Z,13.90
2018-01-04T12:01:55.506Z,12.90
2018-01-04T12:04:23.223Z,13.63
2018-01-04T12:06:50.862Z,11.80
2018-01-04T12:09:18.658Z,18.40
2018-01-04T12:11:46.218Z,24.53
2018-01-04T12:14:13.818Z,13.23
2018-01-04T12:16:41.382Z,13.07
2018-01-04T12:19:08.964Z,13.87
2018-01-04T12:21:36.582Z,19.13
2018-01-04T12:24:04.366Z,13.90
2018-01-04T12:26:31.927Z,15.33
2018-01-04T12:28:59.547Z,15.37
2018-01-04T12:31:27.112Z,16.50
2018-01-04T12:33:54.810Z,16.17
2018-01-04T12:36:22.444Z,16.00
2018-01-04T12:38:50.010Z,15.00
2018-01-04T12:41:17.758Z,21.80
2018-01-04T12:43:45.610Z,15.30
2018-01-04T12:46:13.166Z,19.40
2018-01-04T12:48:40.734Z,18.10
2018-01-04T12:51:08.503Z,17.30
2018-01-04T12:53:36.067Z,17.87
2018-01-04T12:56:03.782Z,20.03
2018-01-04T12:58:31.385Z,14.70
2018-01-04T13:00:58.941Z,20.20
2018-01-04T13:03:26.521Z,14.87
2018-01-04T13:05:54.371Z,20.03
2018-01-04T13:08:21.963Z,18.30
2018-01-04T13:10:49.580Z,20.10
2018-01-04T13:13:17.194Z,19.33
2018-01-04T13:15:44.763Z,16.53
2018-01-04T13:18:12.537Z,19.63
2018-01-04T13:20:40.388Z,14.33
2018-01-04T13:23:07.950Z,17.13
2018-01-04T13:25:35.518Z,11.20
2018-01-04T13:28:03.333Z,13.70
2018-01-04T13:30:31.151Z,16.53
2018-01-04T13:32:58.816Z,19.10
2018-01-04T13:35:26.426Z,18.73
2018-01-04T13:37:54.182Z,24.13
2018-01-04T13:40:21.898Z,19.50
2018-01-04T13:42:49.720Z,17.20
2018-01-04T13:45:17.530Z,17.47
2018-01-04T13:47:45.097Z,21.40
2018-01-04T13:50:12.898Z,19.10
2018-01-04T13:52:40.466Z,31.07
2018-01-04T13:55:08.196Z,27.33
2018-01-04T13:57:35.815Z,22.93
2018-01-04T14:00:03.528Z,19.47
2018-01-04T14:02:31.090Z,18.80
2018-01-04T14:04:58.907Z,20.10
2018-01-04T14:07:26.474Z,17.27
2018-01-04T14:09:54.042Z,17.50
2018-01-04T14:12:21.860Z,18.13
2018-01-04T14:14:49.418Z,23.83
2018-01-04T14:17:16.983Z,26.00
2018-01-04T14:19:44.814Z,21.47
2018-01-04T14:22:12.374Z,21.40
2018-01-04T14:24:40.030Z,21.70
2018-01-04T14:27:07.649Z,22.70
2018-01-04T14:29:35.209Z,35.13
2018-01-04T14:32:02.882Z,36.30
2018-01-04T14:34:30.512Z,46.40
2018-01-04T14:36:58.222Z,51.77
2018-01-04T14:39:25.868Z,98.60
2018-01-04T14:41:53.490Z,94.50
2018-01-04T14:44:21.183Z,86.67
2018-01-04T14:46:48.753Z,51.27
2018-01-04T14:49:16.375Z,49.00
2018-01-04T14:51:43.946Z,60.17
2018-01-04T14:54:11.568Z,46.27
2018-01-04T14:56:39.453Z,47.27
2018-01-04T14:59:07.020Z,60.87
2018-01-04T15:01:34.820Z,62.50
2018-01-04T15:04:02.556Z,62.03
2018-01-04T15:06:30.358Z,73.10
2018-01-04T15:08:58.075Z,68.60
2018-01-04T15:11:25.742Z,97.33
2018-01-04T15:13:53.511Z,115.13
2018-01-04T15:16:21.082Z,106.27
2018-01-04T15:18:48.706Z,140.63
2018-01-04T15:21:16.466Z,138.93
2018-01-04T15:23:44.135Z,159.77
2018-01-04T15:26:11.765Z,91.30
2018-01-04T15:28:39.330Z,71.40
2018-01-04T15:31:06.921Z,85.30
2018-01-04T15:33:34.616Z,89.93
2018-01-04T15:36:02.246Z,106.47
2018-01-04T15:38:29.957Z,88.00
2018-01-04T15:40:57.570Z,76.10
2018-01-04T15:43:25.369Z,73.47
2018-01-04T15:45:52.926Z,67.90
2018-01-04T15:48:20.685Z,68.77
2018-01-04T15:50:48.277Z,72.40
2018-01-04T15:53:15.845Z,122.00
2018-01-04T15:55:43.485Z,129.63
2018-01-04T15:58:11.339Z,148.10
2018-01-04T16:00:39.152Z,111.47
2018-01-04T16:03:06.854Z,112.77
2018-01-04T16:05:34.425Z,117.90
2018-01-04T16:08:02.014Z,113.47
2018-01-04T16:10:29.732Z,168.77
2018-01-04T16:12:57.302Z,144.80
2018-01-04T16:15:24.885Z,124.73
2018-01-04T16:17:52.514Z,126.00
2018-01-04T16:20:20.083Z,110.70
2018-01-04T16:22:47.658Z,103.67
2018-01-04T16:25:15.516Z,96.67
2018-01-04T16:27:43.100Z,97.37
2018-01-04T16:30:10.730Z,99.57
2018-01-04T16:32:38.341Z,110.47
2018-01-04T16:35:05.938Z,120.70
2018-01-04T16:37:33.511Z,104.73
2018-01-04T16:40:01.131Z,75.50
2018-01-04T16:42:28.861Z,72.27
2018-01-04T16:44:56.415Z,101.07
2018-01-04T16:47:24.038Z,158.27
2018-01-04T16:49:51.616Z,157.53
2018-01-04T16:52:19.189Z,215.23
2018-01-04T16:54:46.810Z,305.20
2018-01-04T16:57:14.551Z,262.77
2018-01-04T16:59:42.268Z,284.90
2018-01-04T17:02:09.891Z,259.37
2018-01-04T17:04:37.466Z,94.97
2018-01-04T17:07:05.040Z,132.93
2018-01-04T17:09:32.750Z,173.97
2018-01-04T17:12:00.575Z,198.27
2018-01-04T17:14:28.146Z,158.13
2018-01-04T17:16:56.181Z,131.50
2018-01-04T17:19:23.751Z,113.47
2018-01-04T17:21:51.554Z,150.10
2018-01-04T17:24:19.179Z,156.60
2018-01-04T17:26:46.864Z,102.80
2018-01-04T17:29:14.444Z,98.50
2018-01-04T17:31:42.321Z,65.13
2018-01-04T17:34:09.912Z,57.33
2018-01-04T17:36:37.494Z,65.47
2018-01-04T17:39:05.275Z,56.83
2018-01-04T17:41:32.968Z,56.83
2018-01-04T17:44:00.532Z,99.43
2018-01-04T17:46:28.281Z,416.80
2018-01-04T17:48:55.940Z,171.10
2018-01-04T17:51:23.772Z,118.43
2018-01-04T17:53:51.406Z,126.50
2018-01-04T17:56:19.063Z,123.50
2018-01-04T17:58:46.630Z,121.03
2018-01-04T18:01:14.288Z,133.53
2018-01-04T18:03:42.056Z,135.80
2018-01-04T18:06:09.622Z,124.67
2018-01-04T18:08:37.381Z,119.63
2018-01-04T18:11:04.959Z,142.63
2018-01-04T18:13:32.535Z,135.20
2018-01-04T18:16:00.242Z,145.67
2018-01-04T18:18:28.064Z,140.17
2018-01-04T18:20:55.667Z,110.40
2018-01-04T18:23:23.502Z,165.77
2018-01-04T18:25:51.090Z,169.83
2018-01-04T18:28:18.662Z,109.00
2018-01-04T18:30:46.406Z,92.77
2018-01-04T18:33:13.970Z,128.47
2018-01-04T18:35:41.582Z,157.10
2018-01-04T18:38:09.412Z,149.53
2018-01-04T18:40:36.959Z,137.73
2018-01-04T18:43:04.530Z,144.13
2018-01-04T18:45:32.161Z,133.87
2018-01-04T18:47:59.722Z,126.73
2018-01-04T18:50:27.294Z,111.63
2018-01-04T18:52:55.000Z,96.83
2018-01-04T18:55:22.574Z,82.00
2018-01-04T18:57:50.206Z,75.90
2018-01-04T19:00:17.860Z,65.60
2018-01-04T19:02:45.588Z,61.10
2018-01-04T19:05:13.158Z,65.17
2018-01-04T19:07:40.807Z,99.77
2018-01-04T19:10:08.428Z,67.13
2018-01-04T19:12:36.159Z,62.43
2018-01-04T19:15:03.969Z,59.70
2018-01-04T19:17:31.696Z,69.97
2018-01-04T19:19:59.414Z,73.67
2018-01-04T19:22:27.301Z,84.93
2018-01-04T19:24:54.894Z,83.27
2018-01-04T19:27:22.671Z,80.20
2018-01-04T19:29:50.590Z,80.17
2018-01-04T19:32:18.407Z,79.70
2018-01-04T19:34:46.227Z,102.37
2018-01-04T19:37:13.867Z,105.53
2018-01-04T19:39:41.562Z,123.37
2018-01-04T19:42:09.380Z,133.60
2018-01-04T19:44:37.018Z,135.90
2018-01-04T19:47:04.817Z,141.93
2018-01-04T19:49:32.406Z,125.70
2018-01-04T19:52:00.253Z,119.57
2018-01-04T19:54:27.846Z,110.03
2018-01-04T19:56:55.413Z,106.97
2018-01-04T19:59:23.207Z,113.77
2018-01-04T20:01:50.760Z,138.90
2018-01-04T20:04:18.340Z,161.13
2018-01-04T20:06:46.161Z,206.37
2018-01-04T20:09:13.730Z,171.97
2018-01-04T20:11:41.299Z,163.20
2018-01-04T20:14:08.933Z,105.07
2018-01-04T20:16:36.522Z,104.60
2018-01-04T20:19:04.095Z,97.70
2018-01-04T20:21:31.869Z,88.40
2018-01-04T20:23:59.587Z,83.83
2018-01-04T20:26:27.405Z,79.27
2018-01-04T20:28:55.038Z,72.17
2018-01-04T20:31:22.842Z,70.20
2018-01-04T20:33:50.426Z,72.00
2018-01-04T20:36:18.125Z,73.17
2018-01-04T20:38:45.716Z,74.17
2018-01-04T20:41:13.282Z,80.87
2018-01-04T20:43:40.894Z,92.37
2018-01-04T20:46:08.471Z,93.40
2018-01-04T20:48:36.070Z,89.77
2018-01-04T20:51:03.724Z,98.67
2018-01-04T20:53:31.503Z,86.30
2018-01-04T20:55:59.322Z,82.50
2018-01-04T20:58:27.139Z,99.47
2018-01-04T21:00:54.744Z,101.20
2018-01-04T21:03:22.360Z,74.37
2018-01-04T21:05:49.995Z,71.27
2018-01-04T21:08:17.573Z,68.63
2018-01-04T21:10:45.331Z,64.13
2018-01-04T21:13:12.959Z,83.47
2018-01-04T21:15:40.522Z,78.50
2018-01-04T21:18:08.283Z,79.07
2018-01-04T21:20:36.101Z,90.50
2018-01-04T21:23:03.676Z,99.83
2018-01-04T21:25:31.253Z,123.17
2018-01-04T21:27:58.875Z,111.63
2018-01-04T21:30:26.730Z,102.80
2018-01-04T21:32:54.281Z,83.67
2018-01-04T21:35:22.063Z,89.07
2018-01-04T21:37:49.638Z,126.50
2018-01-04T21:40:17.211Z,91.97
2018-01-04T21:42:44.862Z,55.60
2018-01-04T21:45:12.429Z,54.90
2018-01-04T21:47:39.994Z,60.57
2018-01-04T21:50:07.810Z,249.77
2018-01-04T21:52:35.386Z,218.93
2018-01-04T21:55:03.118Z,121.23
2018-01-04T21:57:30.971Z,37.47
2018-01-04T21:59:58.600Z,33.33
2018-01-04T22:02:26.291Z,32.03
2018-01-04T22:04:54.127Z,32.57
2018-01-04T22:07:21.689Z,79.50
2018-01-04T22:09:49.268Z,884.43
2018-01-04T22:12:16.900Z,315.57
2018-01-04T22:14:44.698Z,345.50
2018-01-04T22:17:12.263Z,271.23
2018-01-04T22:19:40.135Z,315.97
2018-01-04T22:22:07.703Z,136.63
2018-01-04T22:24:35.572Z,70.70
2018-01-04T22:27:03.391Z,61.77
2018-01-04T22:29:30.971Z,44.60
2018-01-04T22:31:58.686Z,45.33
2018-01-04T22:34:26.278Z,33.10
2018-01-04T22:36:53.842Z,26.17
2018-01-04T22:39:21.412Z,27.57
2018-01-04T22:41:49.150Z,49.77
2018-01-04T22:44:16.710Z,45.27
2018-01-04T22:46:44.254Z,45.43
2018-01-04T22:49:11.870Z,54.13
2018-01-04T22:51:39.449Z,53.57
2018-01-04T22:54:07.184Z,107.23
2018-01-04T22:56:34.854Z,83.20
2018-01-04T22:59:02.427Z,188.30
2018-01-04T23:01:30.242Z,244.67
2018-01-04T23:03:57.979Z,562.30
2018-01-04T23:06:25.546Z,569.90
2018-01-04T23:08:53.127Z,257.97
2018-01-04T23:11:20.758Z,110.13
2018-01-04T23:13:48.316Z,44.53
2018-01-04T23:16:16.050Z,42.30
2018-01-04T23:18:43.759Z,40.27
2018-01-04T23:21:11.485Z,29.20
2018-01-04T23:23:39.204Z,27.90
2018-01-04T23:26:07.022Z,43.17
2018-01-04T23:28:34.585Z,227.97
2018-01-04T23:31:02.148Z,50.47
2018-01-04T23:33:29.942Z,31.03
2018-01-04T23:35:57.511Z,36.83
2018-01-04T23:38:25.313Z,67.67
2018-01-04T23:40:52.983Z,34.87
2018-01-04T23:43:20.554Z,71.80
2018-01-04T23:45:48.367Z,110.83
2018-01-04T23:48:16.186Z,48.40
2018-01-04T23:50:44.105Z,36.87
2018-01-04T23:53:11.661Z,29.90
2018-01-04T23:55:39.542Z,30.90
2018-01-04T23:58:07.098Z,33.77
